Aérodrome :
LOGIN :

S'inscrire | Disclaimer

   EN    FR    IT 

 










Légende :    VFR   VFR Marginal   IFR   IFR Intensif   IFR Très Intensif
Visi : 
Plafond : 
>= 8 km
>= 3000ft
5 à 8 km
1000 à 3000 ft
1500m à 5 km
500 à 1000 ft
800 à 1500m
200 à 500 ft
< 800m
< 200 ft
Symboles :   Orages  Brouillard  Fortes neiges  Fortes précipitations  Vent > 20 kt
SIGMETs :   Divers  Orages  Givrage  Turbulence  Onde Orograph.  Cendres Volcan.







- Altitude de l'aérodrome : 640 ft
- Code IATA : AOC


EDAC - Altenburg-Nobitz

DERNIER METAR :
  • 161620Z 25006KT 230V290 9999 FEW043 20/10 Q1016

METARs EXPIRÉS :
  • 161550Z 28006KT 240V330 9999 FEW042 20/10 Q1016
  • 161520Z 27007KT 230V340 9999 FEW039 20/11 Q1016
  • 161450Z 29008KT 9999 FEW037 19/10 Q1016
  • 161420Z 26006KT 210V330 9999 SCT034 18/11 Q1016
  • 161350Z 27007KT 220V320 9999 BKN033 18/10 Q1016

TAF TAF EDAC
Valide du 16 à 15h jusqu'au 17 à 00h UTC


161400Z 1615/1624 31009KT 9999 SCT035
BECMG 1618/1620 28004KT
Pas de NOTAMs connus pour ce terrain.



MET'MAP, la Météo Aéronautique d'un coup d'oeil ! - Copyright ORBIFLY Décembre 2007 - Disclaimer

ORBIFLY MET'MAP TEAM :

Programmation & Développement : Alexandra Zaïnal
Conception & Développement : Baudouin d'Aumeries
Co-Programmation & Développement : Marc-Olivier Méhu
Soutien technique & logistique : Manuel Goepfert

Contact : metmap@orbifly.com




SOURCES & CREDITS :

   NOAA